Airport Name : Ataturk

Other Name : Istanbul

ICAO : LTBA

IATA : IST

FAA :

Latitude : 40.976922

Longitude : 28.814606

Country : Turkey

Local Date and Time : 5/19/2019 9:40:00 AM

 

TAF (Terminal Aerodrome Forecast)

TAF LTBA 190440Z 1906/2012 22010KT CAVOK BECMG 1915/1918 14005KT BECMG 2005/2008 24010KT

 

METAR (METeorological Aerodrome Report)

LTBA 190620Z 23008KT CAVOK 20/17 Q1012 NOSIG RMK RWY17L 00000KT RWY05 21007KT RWY23 24012KT

LTBA 190550Z 22012KT CAVOK 19/16 Q1012 NOSIG RMK RWY17L 00000KT RWY05 22011KT RWY23 VRB12KT

LTBA 190520Z 22010KT CAVOK 19/16 Q1011 NOSIG RMK RWY17L 00000KT RWY05 22010KT RWY23 24011KT

LTBA 190450Z 22008KT CAVOK 19/16 Q1011 NOSIG RMK RWY17L 00000KT RWY05 22008KT RWY23 24010KT

LTBA 190420Z 22007KT CAVOK 19/16 Q1011 NOSIG RMK RWY17L 00000KT RWY05 21007KT RWY23 22007KT

LTBA 190350Z 21008KT CAVOK 18/16 Q1011 NOSIG RMK RWY17L 00000KT RWY05 20008KT RWY23 21008KT

LTBA 190320Z 21008KT CAVOK 17/16 Q1011 NOSIG RMK RWY17L 00000KT RWY05 19007KT RWY23 21007KT

LTBA 190250Z 20008KT CAVOK 17/16 Q1010 NOSIG RMK RWY17L 00000KT RWY05 20007KT RWY23 22006KT